FLIGHT INFORMATION
Qantas

QFA23

At Arrival Gate

KPAE
 YSSY
DATE: 2018-08-16
GATE:  -
GATE DEPARTURE: 15:43
TAKEOFF: 15:51
DATE: 2018-08-17
GATE: I24
LANDING: 06:32
GATE ARRIVAL: 06:37
FLIGHT DATA
Crew: MICHAEL ROTH
Speed: 516 kts Altitude: 38000 ft
Stage Length: 6748 nm
Route: 
Block Time: 14.9 Flight Time: 14.7
Fuel Used: 303032 LB
TRACK DATA
50000 FT1000 KTAltitudeSpeed
AIRCRAFT INFORMATION
Aircraft Type: B748
Registration: VH-OJR
SELCAL:  MSN/LN: 0 / 1
Operator: QANTAS
Flights: 10 Block Time: 61.7 Flight Time: 59.4
Fuel Used: 1785791 LB
  • DEPARTURE INFORMATION
    Date: 2018-08-16
    Airport: KPAE
    Gate:  -
    Gate Departure: 15:43
    Takeoff: 15:51
    ARRIVAL INFORMATION
    Date: 2018-08-17
    Airport: YSSY
    Gate: I24
    Landing: 06:32
    Gate Arrival: 06:37
  • FLIGHT DATA
    Crew: MICHAEL ROTH
    Speed: 516 kts Altitude: 38000 ft
    Stage Length: 3644 nm
    Route: 
    Block Time: 14.9 Flight Time: 14.7
    Fuel Used: 303032 LB
  • AIRCRAFT INFORMATION
    Aircraft Type: B748
    Registration: VH-OJR
    SELCAL:  MSN/LN: 0 / 1
    Operator: Qantas
    Flights: 10 Block Time: 61.7 Flight Time: 59.4
    Fuel Used: 1785791 LB

DATALINK LOG | Newest first | Current as of: 2020-08-09 15:10:21
LABEL SEQUENCE CONTENT Dn/Up
QD375806:37 38.5▼ Dn
QC321806:32▼ Dn
2U2347YSSY 170300Z 14008KT CAVOK 16/00 Q1013 NOSIG▲ Up
2S0127YSSY▼ Dn
GA0902GATE I24▲ Up
GR1931YSSY▼ Dn
2U4436YSSY 170230Z 14009KT CAVOK 16/00 Q1013 NOSIG▲ Up
2S0449YSSY▼ Dn
464339/OV XXX /TM 0443 /FL380 /TP B748 /TA -17 /WV 241/104 /RM 13 HOURS NP▼ Dn
QB051415:51▼ Dn
QA431615:43 341.7▼ Dn
2U4452YSSY 161330Z 30008KT CAVOK 12/M01 Q1014 NOSIG▲ Up
2U4452KPAE 161253Z 17003KT 5SM FU HZ CLR 13/12 A3004 RMK AO2 SLP169 T01330122▲ Up
2S0438KPAE YSSY▼ Dn


AIRCRAFT HISTORY
FLIGHT DATE FLIGHT NO. ORIGIN DESTINATION ROUTE BLOCK TIME FLIGHT TIME FUEL USED (LB) PILOT
2020-07-15QFA75CYVR YSSY CYVR VRNB WCNB XXNB CFWHR HUH APDON TECUV CFZPT BUICK YYJ SQUIM ELMAA HQM SEDAR ZANNG ZAGER ZINNO ZEMOM ZOULU ZIGIE SOK 15N67 12N70 05N76 ARTOP AKUMO ATRAS SONNB MEPAB ISTEM MISLY MARLN YSSY14.514.2353864Ryan Syferd
2019-12-18QFA1218CYYZ CYVR CYYZ URSAL KASED IWD GFK MOT PEMDU YXC ERVYN LOCAN DASBI SENSA EMETO YDC BOOTH VITEV STAVE LANNE MILLS BASRA SEBOG APLEX EMKAM RW08L4.64.586543Randall Smith
2019-12-18QFA1218KCLT CYYZ KCLT JDEAN KRITR FILDS ILLSA EWESS RICCS OXMAN TMILS MYPAL LINNG SEDAB DEGRO SEGOD VERKO DARPU DANIP MASAR LERAN DULPA RW051.31.227438Randall Smith
2019-04-11KCLT KCLT 000Randall Smith
2019-04-05QFA404LFPG KCLT LFPG PG082 PG088 KELUD EVX RUBIX SENLO JSY LIZAD NAKID LND INSUN BOGMI LEDGO RESNO 5620N 5730N 5740N 5550N LOMSI YNA YGP EBONY BOS SWALO NELIE GREKI CMK DUEYS JERSY SBJ BIGGY COPES MXE STOEN SACRI MURPH BINKS GVE LYH BEMOH WRLLD BLUEJ BURRZ SKLES DENTT BOOTS CHSLY KRISS SLPOH JAMGO WHIZE CAATT EPAYE NIVSE RW36C8.78.5408922Randall Smith
2019-03-31QFA330WSSS LFPG WSSS LEDOX LETGO DIVSA DOSPA VTK AKOMA AGVAR SABKA MASBO GUPTA ENKOL SAPAT VKL INTOT PUGER ANSAX IGEBO NOPEK DUBTA ELSAR GIRNA MMV DOLKI VAGPU AGELA ENTUG BEKUT SUGID DOGET PARAR SETSI VAXIM ASLOM MESPO PEDEX NOVSU MELMI TAVNO ASMET SRJ DAVUT DESLA GADPU YZD RANDU PARUG SIVUD PEKAM DEKBA DAXIL AMBEX SISIL TBZ VUVAG BORES DASIS ERZ HOCAM BAVTI TBN ERIDU TOLUN OLUPO KARDE KUGOS BUDOP VEDUS XERAM ENORI DEVIM LORNI CI08L RW08L13.813.3398736Randall Smith
2018-11-14QFA9YSSY WSSS KADOM PKS KADUV 29S40 ELLOW TIMMI SANDY 15S22 ATMAP BLI UDONO RAMPY SUMDI TAVIP RAFIS MASRI SAMSU RUSMA SURGA7.67.4156206-HIDDEN-
2018-10-16QFA861YBCG YSSY 1.71.229264Alex Bashkatov
2018-08-17QFA282YSSY YBCG 1.30.921784Douglas Morlan
2018-08-16QFA23KPAE YSSY 14.914.7303032Michael Roth